createdAt,value
2018-04-25T00:02:08.923Z,72.10
2018-04-25T00:04:37.183Z,72.00
2018-04-25T00:07:06.228Z,72.20
2018-04-25T00:09:34.483Z,72.20
2018-04-25T00:12:02.750Z,71.90
2018-04-25T00:14:31.026Z,71.80
2018-04-25T00:16:59.286Z,71.70
2018-04-25T00:19:28.326Z,71.90
2018-04-25T00:21:56.595Z,71.90
2018-04-25T00:24:24.865Z,72.50
2018-04-25T00:26:53.105Z,72.80
2018-04-25T00:29:22.122Z,72.90
2018-04-25T00:31:50.372Z,72.90
2018-04-25T00:34:19.429Z,72.90
2018-04-25T00:36:48.439Z,73.50
2018-04-25T00:39:16.717Z,73.50
2018-04-25T00:41:44.958Z,73.50
2018-04-25T00:44:13.230Z,73.10
2018-04-25T00:46:41.683Z,73.20
2018-04-25T00:49:10.744Z,72.90
2018-04-25T00:51:38.990Z,72.90
2018-04-25T00:54:07.265Z,73.20
2018-04-25T00:56:35.522Z,73.40
2018-04-25T00:59:03.786Z,73.60
2018-04-25T01:01:32.060Z,73.00
2018-04-25T01:04:00.306Z,72.90
2018-04-25T01:06:28.553Z,73.20
2018-04-25T01:08:56.821Z,72.70
2018-04-25T01:11:25.093Z,72.50
2018-04-25T01:13:53.350Z,72.10
2018-04-25T01:16:21.630Z,72.30
2018-04-25T01:18:49.902Z,72.30
2018-04-25T01:21:18.162Z,72.30
2018-04-25T01:23:46.418Z,72.20
2018-04-25T01:26:15.467Z,72.00
2018-04-25T01:28:51.545Z,72.00
2018-04-25T01:31:34.676Z,72.10
2018-04-25T01:37:01.974Z,71.80
2018-04-25T01:39:54.514Z,72.10
2018-04-25T01:42:28.257Z,71.90
2018-04-25T01:45:02.994Z,72.30
2018-04-25T01:47:31.874Z,71.70
2018-04-25T01:53:11.413Z,72.80
2018-04-25T01:55:51.482Z,72.70
2018-04-25T01:58:31.582Z,72.80
2018-04-25T02:01:11.562Z,73.10
2018-04-25T02:03:51.612Z,73.30
2018-04-25T02:06:19.876Z,73.50
2018-04-25T02:08:48.139Z,74.00
2018-04-25T02:11:16.415Z,73.80
2018-04-25T02:13:44.669Z,73.80
2018-04-25T02:16:12.926Z,73.60
2018-04-25T02:18:41.174Z,73.80
2018-04-25T02:21:10.224Z,74.80
2018-04-25T02:23:38.481Z,74.80
2018-04-25T02:26:06.731Z,75.40
2018-04-25T02:28:34.988Z,75.00
2018-04-25T02:31:04.019Z,74.50
2018-04-25T02:33:32.283Z,74.50
2018-04-25T02:36:00.607Z,74.70
2018-04-25T02:38:28.815Z,75.90
2018-04-25T02:40:57.848Z,76.40
2018-04-25T02:43:26.120Z,76.40
2018-04-25T02:45:54.368Z,76.20
2018-04-25T02:48:23.393Z,76.10
2018-04-25T02:50:51.649Z,76.10
2018-04-25T02:53:19.921Z,75.90
2018-04-25T02:55:48.181Z,76.00
2018-04-25T02:58:17.208Z,75.70
2018-04-25T03:00:45.450Z,75.70
2018-04-25T03:03:14.487Z,74.90
2018-04-25T03:05:42.762Z,74.90
2018-04-25T03:08:11.027Z,75.20
2018-04-25T03:10:39.296Z,75.00
2018-04-25T03:13:07.559Z,74.90
2018-04-25T03:15:36.582Z,75.20
2018-04-25T03:18:04.831Z,75.20
2018-04-25T03:20:33.857Z,74.90
2018-04-25T03:23:02.119Z,74.90
2018-04-25T03:25:30.390Z,75.50
2018-04-25T03:27:58.637Z,75.60
2018-04-25T03:30:26.910Z,75.30
2018-04-25T03:32:55.931Z,75.80
2018-04-25T03:35:24.312Z,75.30
2018-04-25T03:37:52.591Z,75.40
2018-04-25T03:40:21.605Z,75.70
2018-04-25T03:42:50.220Z,75.60
2018-04-25T03:45:18.595Z,75.20
2018-04-25T03:47:46.918Z,74.80
2018-04-25T03:50:15.166Z,74.70
2018-04-25T03:52:43.447Z,74.40
2018-04-25T03:55:11.679Z,74.20
2018-04-25T03:57:39.954Z,74.00
2018-04-25T04:00:08.220Z,73.90
2018-04-25T04:02:36.496Z,73.80
2018-04-25T04:05:04.736Z,73.70
2018-04-25T04:07:33.788Z,73.10
2018-04-25T04:10:02.064Z,73.10
2018-04-25T04:12:30.315Z,72.90
2018-04-25T04:14:58.611Z,72.90
2018-04-25T04:17:26.884Z,72.80
2018-04-25T04:19:55.164Z,73.10
2018-04-25T04:22:23.414Z,72.90
2018-04-25T04:24:51.790Z,72.80
2018-04-25T04:27:20.051Z,72.60
2018-04-25T04:29:48.309Z,72.60
2018-04-25T04:32:17.363Z,72.50
2018-04-25T04:34:45.645Z,72.50
2018-04-25T04:37:13.933Z,72.50
2018-04-25T04:39:42.254Z,72.40
2018-04-25T04:42:10.602Z,72.10
2018-04-25T04:44:38.950Z,72.00
2018-04-25T04:47:07.239Z,72.00
2018-04-25T04:49:35.536Z,71.60
2018-04-25T04:52:04.547Z,71.30
2018-04-25T04:54:33.585Z,71.60
2018-04-25T04:57:01.910Z,71.50
2018-04-25T04:59:30.181Z,72.10
2018-04-25T05:01:58.461Z,71.10
2018-04-25T05:04:27.515Z,72.40
2018-04-25T05:06:55.780Z,72.40
2018-04-25T05:09:24.100Z,71.90
2018-04-25T05:11:52.395Z,70.70
2018-04-25T05:14:21.421Z,70.30
2018-04-25T05:16:49.718Z,70.20
2018-04-25T05:19:18.014Z,70.20
2018-04-25T05:21:46.291Z,69.60
2018-04-25T05:24:15.312Z,69.60
2018-04-25T05:26:44.360Z,69.90
2018-04-25T05:29:12.646Z,69.80
2018-04-25T05:31:40.915Z,69.60
2018-04-25T05:34:09.259Z,69.70
2018-04-25T05:36:37.548Z,69.90
2018-04-25T05:39:05.880Z,69.80
2018-04-25T05:41:34.914Z,70.30
2018-04-25T05:44:03.190Z,70.20
2018-04-25T05:46:31.467Z,69.90
2018-04-25T05:48:59.778Z,70.20
2018-04-25T05:51:28.069Z,70.10
2018-04-25T05:53:56.376Z,70.00
2018-04-25T05:56:24.645Z,70.60
2018-04-25T05:58:53.031Z,69.70
2018-04-25T06:01:21.302Z,69.50
2018-04-25T06:03:50.351Z,68.80
2018-04-25T06:06:18.614Z,68.80
2018-04-25T06:08:47.767Z,68.80
2018-04-25T06:11:18.227Z,68.20
2018-04-25T06:13:46.475Z,68.10
2018-04-25T06:16:14.751Z,68.00
2018-04-25T06:18:43.788Z,68.30
2018-04-25T06:21:12.043Z,67.60
2018-04-25T06:23:40.317Z,67.50
2018-04-25T06:26:08.603Z,67.10
2018-04-25T06:28:36.994Z,67.20
2018-04-25T06:31:05.266Z,66.30
2018-04-25T06:33:33.575Z,66.20
2018-04-25T06:36:01.842Z,64.80
2018-04-25T06:38:30.130Z,63.60
2018-04-25T06:40:58.459Z,63.00
2018-04-25T06:43:26.762Z,61.40
2018-04-25T06:45:55.026Z,58.50
2018-04-25T06:48:23.328Z,53.60
2018-04-25T06:50:51.624Z,47.50
2018-04-25T06:53:19.917Z,44.90
2018-04-25T06:55:48.942Z,41.50
2018-04-25T06:58:17.226Z,41.40
2018-04-25T07:00:46.169Z,41.10
2018-04-25T07:03:14.539Z,39.30
2018-04-25T07:05:42.802Z,39.10
2018-04-25T07:08:11.135Z,37.90
2018-04-25T07:10:39.388Z,35.10
2018-04-25T07:13:07.687Z,32.60
2018-04-25T07:15:35.963Z,31.90
2018-04-25T07:18:04.245Z,31.60
2018-04-25T07:20:32.512Z,31.40
2018-04-25T07:23:00.765Z,30.50
2018-04-25T07:25:29.803Z,28.60
2018-04-25T07:27:58.119Z,28.50
2018-04-25T07:30:26.415Z,28.00
2018-04-25T07:32:55.510Z,27.70
2018-04-25T07:35:24.592Z,27.80
2018-04-25T07:37:52.854Z,27.80
2018-04-25T07:40:21.117Z,27.30
2018-04-25T07:42:49.397Z,27.70
2018-04-25T07:45:17.717Z,26.00
2018-04-25T07:47:46.013Z,26.00
2018-04-25T07:50:14.301Z,24.90
2018-04-25T07:52:42.689Z,24.80
2018-04-25T07:55:10.941Z,24.40
2018-04-25T07:57:39.427Z,24.50
2018-04-25T08:00:07.659Z,23.90
2018-04-25T08:02:35.919Z,25.30
2018-04-25T08:05:04.190Z,26.20
2018-04-25T08:07:32.492Z,27.20
2018-04-25T08:10:00.759Z,28.30
2018-04-25T08:12:40.854Z,30.90
2018-04-25T08:15:21.004Z,33.20
2018-04-25T08:18:01.346Z,38.50
2018-04-25T08:20:41.389Z,39.90
2018-04-25T08:23:10.434Z,44.90
2018-04-25T08:25:38.706Z,44.50
2018-04-25T08:28:07.030Z,45.40
2018-04-25T08:30:35.364Z,45.20
2018-04-25T08:33:03.614Z,44.20
2018-04-25T08:35:31.897Z,45.10
2018-04-25T08:38:00.187Z,46.30
2018-04-25T08:40:28.470Z,44.80
2018-04-25T08:42:56.819Z,46.60
2018-04-25T08:45:25.873Z,49.90
2018-04-25T08:47:54.176Z,49.80
2018-04-25T08:50:22.487Z,50.60
2018-04-25T08:52:50.811Z,50.00
2018-04-25T08:55:19.096Z,50.00
2018-04-25T08:57:47.402Z,48.30
2018-04-25T09:00:16.417Z,48.00
2018-04-25T09:02:44.694Z,48.00
2018-04-25T09:05:13.047Z,48.30
2018-04-25T09:07:41.309Z,48.90
2018-04-25T09:10:10.413Z,48.80
2018-04-25T09:12:39.448Z,49.20
2018-04-25T09:15:07.737Z,49.20
2018-04-25T09:17:36.022Z,49.20
2018-04-25T09:20:04.451Z,49.30
2018-04-25T09:22:33.485Z,48.20
2018-04-25T09:25:01.738Z,48.20
2018-04-25T09:27:30.006Z,47.50
2018-04-25T09:29:58.451Z,47.10
2018-04-25T09:32:27.697Z,45.30
2018-04-25T09:34:55.951Z,45.90
2018-04-25T09:37:24.225Z,45.50
2018-04-25T09:39:52.502Z,44.70
2018-04-25T09:42:20.804Z,44.20
2018-04-25T09:44:49.078Z,44.70
2018-04-25T09:47:17.412Z,44.70
2018-04-25T09:49:45.862Z,44.70
2018-04-25T09:52:14.151Z,44.70
2018-04-25T09:54:42.481Z,43.70
2018-04-25T09:57:10.746Z,43.80
2018-04-25T09:59:39.056Z,42.40
2018-04-25T10:02:07.459Z,43.20
2018-04-25T10:04:35.792Z,44.00
2018-04-25T10:07:04.111Z,44.80
2018-04-25T10:09:32.382Z,43.90
2018-04-25T10:12:00.723Z,44.30
2018-04-25T10:14:29.047Z,43.90
2018-04-25T10:16:57.586Z,43.10
2018-04-25T10:19:25.812Z,43.10
2018-04-25T10:21:54.115Z,43.50
2018-04-25T10:24:23.142Z,41.50
2018-04-25T10:26:51.510Z,41.40
2018-04-25T10:29:19.883Z,41.20
2018-04-25T10:31:48.185Z,40.40
2018-04-25T10:34:16.514Z,40.20
2018-04-25T10:36:44.768Z,37.60
2018-04-25T10:39:13.038Z,36.70
2018-04-25T10:41:41.325Z,36.40
2018-04-25T10:44:09.666Z,35.80
2018-04-25T10:46:37.901Z,36.40
2018-04-25T10:49:06.195Z,37.00
2018-04-25T10:51:34.462Z,37.60
2018-04-25T10:54:02.710Z,38.30
2018-04-25T10:56:31.757Z,38.50
2018-04-25T10:59:00.163Z,38.50
2018-04-25T11:01:28.472Z,38.90
2018-04-25T11:03:56.781Z,38.90
2018-04-25T11:06:25.205Z,39.50
2018-04-25T11:08:54.025Z,39.80
2018-04-25T11:11:22.349Z,41.60
2018-04-25T11:13:50.669Z,44.70
2018-04-25T11:16:19.747Z,47.80
2018-04-25T11:18:48.055Z,47.70
2018-04-25T11:21:17.091Z,48.20
2018-04-25T11:23:45.374Z,48.20
2018-04-25T11:26:13.630Z,48.10
2018-04-25T11:28:41.902Z,48.00
2018-04-25T11:31:10.163Z,48.60
2018-04-25T11:33:38.485Z,49.20
2018-04-25T11:36:06.815Z,50.20
2018-04-25T11:38:35.093Z,50.30
2018-04-25T11:41:03.367Z,49.80
2018-04-25T11:43:31.617Z,49.70
2018-04-25T11:46:00.661Z,50.80
2018-04-25T11:48:28.931Z,50.00
2018-04-25T11:50:57.190Z,49.30
2018-04-25T11:53:25.466Z,48.70
2018-04-25T11:55:53.732Z,49.70
2018-04-25T11:58:22.007Z,49.40
2018-04-25T12:00:50.277Z,49.30
2018-04-25T12:03:19.338Z,49.10
2018-04-25T12:05:47.614Z,49.10
2018-04-25T12:08:15.911Z,48.20
2018-04-25T12:10:44.183Z,47.50
2018-04-25T12:13:12.592Z,46.60
2018-04-25T12:15:40.818Z,45.80
2018-04-25T12:18:09.188Z,46.00
2018-04-25T12:20:37.436Z,47.10
2018-04-25T12:23:05.726Z,48.60
2018-04-25T12:25:34.007Z,49.30
2018-04-25T12:28:02.278Z,49.30
2018-04-25T12:30:30.560Z,49.20
2018-04-25T12:32:58.827Z,49.30
2018-04-25T12:35:27.130Z,49.30
2018-04-25T12:37:55.403Z,48.80
2018-04-25T12:40:23.754Z,48.80
2018-04-25T12:42:52.027Z,49.10
2018-04-25T12:45:20.437Z,49.10
2018-04-25T12:47:48.713Z,48.90
2018-04-25T12:50:17.022Z,48.20
2018-04-25T12:52:45.284Z,47.40
2018-04-25T12:55:13.915Z,46.80
2018-04-25T12:57:42.196Z,46.30
2018-04-25T13:00:10.481Z,46.20
2018-04-25T13:02:38.750Z,46.30
2018-04-25T13:05:07.029Z,46.40
2018-04-25T13:07:35.294Z,46.20
2018-04-25T13:10:03.593Z,46.40
2018-04-25T13:12:31.880Z,46.40
2018-04-25T13:15:00.260Z,46.30
2018-04-25T13:17:29.301Z,46.00
2018-04-25T13:19:58.329Z,46.60
2018-04-25T13:22:26.634Z,46.60
2018-04-25T13:24:54.917Z,47.00
2018-04-25T13:27:23.254Z,47.10
2018-04-25T13:29:51.599Z,47.70
2018-04-25T13:32:19.929Z,47.70
2018-04-25T13:34:48.267Z,48.40
2018-04-25T13:37:16.534Z,48.20
2018-04-25T13:39:45.564Z,49.60
2018-04-25T13:42:13.888Z,49.60
2018-04-25T13:44:42.254Z,50.30
2018-04-25T13:47:10.573Z,50.10
2018-04-25T13:49:39.579Z,50.90
2018-04-25T13:52:07.867Z,50.90
2018-04-25T13:54:36.136Z,51.50
2018-04-25T13:57:04.415Z,51.00
2018-04-25T13:59:32.725Z,51.40
2018-04-25T14:02:01.100Z,51.40
2018-04-25T14:04:29.373Z,50.90
2018-04-25T14:06:57.641Z,50.90
2018-04-25T14:09:26.684Z,51.70
2018-04-25T14:11:55.692Z,51.60
2018-04-25T14:14:23.985Z,51.50
2018-04-25T14:16:52.230Z,51.90
2018-04-25T14:19:21.258Z,52.50
2018-04-25T14:21:49.528Z,52.50
2018-04-25T14:24:17.901Z,51.90
2018-04-25T14:26:46.198Z,51.80
2018-04-25T14:29:14.497Z,50.70
2018-04-25T14:31:42.758Z,50.20
2018-04-25T14:34:11.033Z,50.30
2018-04-25T14:36:39.353Z,50.40
2018-04-25T14:39:08.396Z,49.30
2018-04-25T14:41:36.696Z,49.90
2018-04-25T14:44:04.962Z,49.70
2018-04-25T14:46:33.219Z,49.70
2018-04-25T14:49:01.695Z,49.80
2018-04-25T14:51:31.161Z,48.90
2018-04-25T14:53:59.606Z,48.90
2018-04-25T14:56:27.844Z,49.20
2018-04-25T14:58:56.166Z,48.70
2018-04-25T15:01:24.433Z,48.90
2018-04-25T15:03:52.965Z,48.60
2018-04-25T15:06:21.974Z,48.00
2018-04-25T15:08:50.259Z,48.00
2018-04-25T15:11:18.582Z,47.70
2018-04-25T15:13:46.877Z,47.60
2018-04-25T15:16:15.764Z,48.00
2018-04-25T15:18:44.130Z,48.20
2018-04-25T15:21:12.367Z,48.20
2018-04-25T15:23:40.626Z,48.60
2018-04-25T15:26:08.946Z,48.90
2018-04-25T15:28:37.231Z,49.30
2018-04-25T15:31:05.510Z,50.00
2018-04-25T15:33:33.800Z,50.50
2018-04-25T15:36:02.056Z,50.40
2018-04-25T15:38:30.327Z,50.50
2018-04-25T15:40:59.626Z,50.40
2018-04-25T15:43:27.926Z,50.70
2018-04-25T15:45:57.025Z,51.40
2018-04-25T15:48:25.306Z,51.50
2018-04-25T15:50:54.392Z,53.40
2018-04-25T15:53:22.723Z,53.30
2018-04-25T15:55:51.743Z,54.70
2018-04-25T15:58:20.038Z,54.70
2018-04-25T16:00:48.314Z,55.20
2018-04-25T16:03:16.594Z,55.60
2018-04-25T16:05:44.930Z,55.80
2018-04-25T16:08:13.217Z,56.70
2018-04-25T16:10:41.481Z,56.50
2018-04-25T16:13:09.738Z,56.40
2018-04-25T16:15:37.980Z,56.20
2018-04-25T16:18:06.309Z,56.40
2018-04-25T16:20:34.558Z,56.50
2018-04-25T16:23:02.850Z,56.90
2018-04-25T16:25:31.116Z,57.20
2018-04-25T16:27:59.382Z,57.50
2018-04-25T16:30:27.675Z,58.00
2018-04-25T16:32:55.974Z,58.30
2018-04-25T16:35:24.245Z,58.30
2018-04-25T16:37:52.536Z,58.30
2018-04-25T16:40:20.866Z,58.20
2018-04-25T16:42:49.914Z,58.80
2018-04-25T16:45:18.223Z,58.80
2018-04-25T16:47:46.507Z,59.00
2018-04-25T16:50:15.561Z,59.70
2018-04-25T16:52:43.832Z,59.60
2018-04-25T16:55:12.092Z,60.00
2018-04-25T16:57:40.405Z,60.00
2018-04-25T17:00:08.698Z,60.30
2018-04-25T17:02:37.022Z,60.90
2018-04-25T17:05:05.292Z,61.30
2018-04-25T17:07:33.595Z,61.60
2018-04-25T17:10:01.880Z,61.90
2018-04-25T17:12:30.224Z,61.60
2018-04-25T17:14:58.545Z,62.10
2018-04-25T17:17:26.868Z,62.30
2018-04-25T17:19:55.187Z,62.60
2018-04-25T17:22:23.447Z,62.80
2018-04-25T17:24:51.834Z,63.10
2018-04-25T17:27:20.146Z,63.20
2018-04-25T17:29:49.213Z,62.80
2018-04-25T17:32:17.480Z,63.40
2018-04-25T17:34:45.733Z,62.60
2018-04-25T17:37:14.012Z,62.80
2018-04-25T17:39:42.263Z,62.70
2018-04-25T17:42:10.561Z,63.10
2018-04-25T17:44:38.831Z,63.30
2018-04-25T17:47:07.156Z,63.50
2018-04-25T17:49:35.500Z,63.60
2018-04-25T17:52:03.823Z,63.60
2018-04-25T17:54:32.078Z,63.50
2018-04-25T17:57:00.385Z,63.50
2018-04-25T17:59:28.670Z,63.70
2018-04-25T18:01:58.581Z,62.90
2018-04-25T18:04:27.035Z,63.40
2018-04-25T18:06:55.492Z,64.10
2018-04-25T18:09:23.852Z,63.10
2018-04-25T18:11:52.121Z,63.00
2018-04-25T18:14:20.417Z,63.00
2018-04-25T18:16:48.744Z,62.90
2018-04-25T18:19:18.134Z,62.90
2018-04-25T18:21:46.510Z,63.00
2018-04-25T18:24:14.927Z,63.20
2018-04-25T18:26:43.240Z,63.40
2018-04-25T18:29:11.483Z,64.10
2018-04-25T18:31:39.764Z,63.50
2018-04-25T18:34:08.031Z,63.60
2018-04-25T18:36:36.322Z,63.50
2018-04-25T18:39:04.768Z,63.60
2018-04-25T18:41:33.930Z,64.20
2018-04-25T18:44:02.295Z,64.10
2018-04-25T18:46:30.540Z,64.20
2018-04-25T18:48:58.854Z,64.30
2018-04-25T18:51:27.120Z,64.40
2018-04-25T18:53:55.438Z,64.50
2018-04-25T18:56:23.689Z,64.70
2018-04-25T18:58:51.962Z,65.00
2018-04-25T19:01:20.248Z,65.10
2018-04-25T19:03:48.628Z,65.20
2018-04-25T19:06:16.927Z,65.20
2018-04-25T19:08:46.050Z,65.60
2018-04-25T19:11:15.123Z,65.70
2018-04-25T19:13:43.420Z,65.70
2018-04-25T19:16:11.698Z,65.90
2018-04-25T19:18:40.722Z,66.50
2018-04-25T19:21:08.994Z,66.50
2018-04-25T19:23:37.273Z,66.80
2018-04-25T19:26:05.546Z,66.80
2018-04-25T19:28:33.989Z,66.70
2018-04-25T19:31:02.227Z,66.70
2018-04-25T19:33:30.579Z,67.20
2018-04-25T19:35:58.800Z,67.00
2018-04-25T19:38:27.084Z,67.00
2018-04-25T19:40:56.113Z,67.40
2018-04-25T19:43:24.473Z,67.40
2018-04-25T19:45:53.537Z,67.30
2018-04-25T19:48:21.806Z,67.30
2018-04-25T19:50:50.142Z,67.60
2018-04-25T19:53:18.419Z,67.50
2018-04-25T19:55:46.708Z,67.40
2018-04-25T19:58:14.972Z,67.00
2018-04-25T20:00:43.255Z,66.70
2018-04-25T20:03:12.495Z,67.00
2018-04-25T20:05:40.770Z,67.30
2018-04-25T20:08:09.050Z,67.40
2018-04-25T20:10:37.436Z,67.30
2018-04-25T20:13:05.800Z,66.90
2018-04-25T20:15:34.186Z,66.80
2018-04-25T20:18:02.475Z,66.60
2018-04-25T20:20:30.848Z,66.10
2018-04-25T20:22:59.894Z,65.70
2018-04-25T20:25:28.180Z,65.70
2018-04-25T20:27:56.545Z,65.40
2018-04-25T20:30:24.848Z,65.30
2018-04-25T20:32:53.111Z,65.00
2018-04-25T20:35:21.394Z,66.00
2018-04-25T20:37:49.663Z,65.10
2018-04-25T20:40:17.980Z,65.10
2018-04-25T20:42:46.243Z,64.80
2018-04-25T20:45:14.520Z,65.40
2018-04-25T20:47:43.047Z,65.30
2018-04-25T20:50:11.722Z,65.10
2018-04-25T20:52:40.764Z,65.00
2018-04-25T20:55:09.113Z,65.00
2018-04-25T20:57:37.409Z,64.90
2018-04-25T21:00:05.717Z,65.00
2018-04-25T21:02:34.116Z,65.00
2018-04-25T21:05:02.321Z,65.30
2018-04-25T21:07:30.599Z,65.60
2018-04-25T21:09:58.895Z,67.20
2018-04-25T21:12:27.129Z,68.10
2018-04-25T21:14:56.146Z,68.80
2018-04-25T21:17:24.483Z,68.80
2018-04-25T21:19:52.700Z,70.00
2018-04-25T21:22:20.961Z,69.50
2018-04-25T21:24:49.318Z,70.00
2018-04-25T21:27:17.535Z,69.70
2018-04-25T21:29:45.795Z,70.50
2018-04-25T21:32:14.066Z,69.60
2018-04-25T21:34:42.327Z,69.60
2018-04-25T21:37:11.346Z,69.70
2018-04-25T21:39:39.638Z,69.70
2018-04-25T21:42:07.882Z,70.50
2018-04-25T21:44:36.289Z,70.90
2018-04-25T21:47:04.588Z,70.90
2018-04-25T21:49:33.332Z,70.80
2018-04-25T21:52:01.590Z,70.80
2018-04-25T21:54:31.333Z,70.70
2018-04-25T21:56:59.609Z,70.60
2018-04-25T21:59:27.858Z,70.70
2018-04-25T22:01:56.957Z,70.80
2018-04-25T22:04:25.986Z,71.00
2018-04-25T22:06:54.277Z,71.00
2018-04-25T22:09:22.543Z,71.30
2018-04-25T22:11:50.961Z,71.20
2018-04-25T22:14:19.271Z,71.30
2018-04-25T22:16:47.543Z,73.40
2018-04-25T22:19:16.553Z,77.30
2018-04-25T22:21:44.799Z,77.30
2018-04-25T22:24:13.847Z,81.70
2018-04-25T22:26:42.118Z,81.60
2018-04-25T22:29:10.393Z,82.40
2018-04-25T22:31:39.013Z,82.90
2018-04-25T22:34:08.090Z,83.40
2018-04-25T22:36:37.911Z,84.80
2018-04-25T22:39:06.196Z,84.80
2018-04-25T22:41:34.480Z,85.40
2018-04-25T22:44:03.520Z,85.20
2018-04-25T22:46:31.839Z,85.20
2018-04-25T22:49:00.097Z,85.40
2018-04-25T22:51:28.382Z,85.20
2018-04-25T22:53:56.664Z,87.00
2018-04-25T22:56:24.918Z,86.60
2018-04-25T22:58:54.154Z,86.30
2018-04-25T23:01:22.435Z,85.60
2018-04-25T23:03:51.459Z,86.60
2018-04-25T23:06:19.724Z,86.60
2018-04-25T23:08:48.033Z,85.20
2018-04-25T23:11:16.294Z,85.80
2018-04-25T23:13:44.538Z,85.40
2018-04-25T23:16:13.604Z,83.30
2018-04-25T23:18:42.083Z,83.30
2018-04-25T23:21:10.359Z,83.90
2018-04-25T23:23:38.623Z,83.20
2018-04-25T23:26:06.880Z,83.50
2018-04-25T23:28:35.155Z,83.20
2018-04-25T23:31:03.424Z,84.00
2018-04-25T23:33:31.692Z,83.50
2018-04-25T23:35:59.939Z,83.50
2018-04-25T23:38:28.971Z,83.30
2018-04-25T23:40:57.262Z,83.30
2018-04-25T23:43:25.626Z,83.10
2018-04-25T23:45:53.892Z,83.00
2018-04-25T23:48:22.186Z,82.90
2018-04-25T23:50:50.520Z,82.40
2018-04-25T23:53:18.808Z,82.90
2018-04-25T23:55:47.827Z,82.20
2018-04-25T23:58:16.246Z,82.00
